createdAt,value
2023-03-26T00:04:10.600Z,8.220997726797659
2023-03-26T00:10:31.225Z,8.170954614339465
2023-03-26T00:16:54.370Z,8.117723139632107
2023-03-26T00:24:11.308Z,8.10599393812709
2023-03-26T00:30:31.068Z,8.063445861204015
2023-03-26T00:36:51.209Z,8.068827079849498
2023-03-26T00:43:13.866Z,8.038296274038462
2023-03-26T00:49:33.648Z,8.025305706521738
2023-03-26T00:55:54.288Z,8.067523254598662
2023-03-26T01:02:15.498Z,8.048259824414716
2023-03-26T01:08:36.215Z,7.872204222408027
2023-03-26T01:14:56.958Z,7.869403872282607
2023-03-26T01:21:17.473Z,7.79100060096154
2023-03-26T01:27:38.589Z,7.870541779891305
2023-03-26T01:33:58.334Z,7.818532478051839
2023-03-26T01:40:19.823Z,7.682199127299331
2023-03-26T01:46:40.897Z,7.721021242683946
2023-03-26T01:53:02.934Z,7.706713785535117
2023-03-26T01:59:23.351Z,7.811038748954848
2023-03-26T02:05:42.163Z,7.830483774038462
2023-03-26T02:12:02.930Z,7.7867050323996665
2023-03-26T02:19:55.071Z,7.867656511287624
2023-03-26T02:26:16.085Z,7.809923050794314
2023-03-26T02:32:37.313Z,7.776769570443144
2023-03-26T02:38:57.368Z,7.76594181124582
2023-03-26T02:46:03.811Z,7.853400658444816
2023-03-26T02:52:24.940Z,7.844258857650501
2023-03-26T02:58:45.871Z,7.880462871028427
2023-03-26T03:09:28.957Z,7.873167067307693
2023-03-26T03:15:48.886Z,7.91162468645485
2023-03-26T03:22:08.310Z,7.871714961329432
2023-03-26T03:28:30.296Z,7.852031511287626
2023-03-26T03:34:51.451Z,7.879984714673913
2023-03-26T03:46:44.597Z,7.767455973035117
2023-03-26T03:53:06.319Z,7.639758178302676
2023-03-26T03:59:29.173Z,7.681325773411372
2023-03-26T04:05:49.343Z,7.769867657817726
2023-03-26T04:13:05.799Z,7.659866220735786
2023-03-26T04:19:26.476Z,7.653339255852842
2023-03-26T04:25:46.934Z,7.679222408026755
2023-03-26T04:32:07.060Z,7.6238771164297665
2023-03-26T04:39:18.884Z,7.537980116011708
2023-03-26T04:45:38.343Z,7.452609610158864
2023-03-26T04:51:57.940Z,7.388093122909698
2023-03-26T04:58:18.180Z,7.303651494565217
2023-03-26T05:09:31.592Z,7.274001228051838
2023-03-26T05:15:52.181Z,7.27116756375418
2023-03-26T05:22:14.574Z,7.22672123223244
2023-03-26T05:28:33.988Z,7.211816732859532
2023-03-26T05:34:55.341Z,7.287837714255853
2023-03-26T05:41:17.521Z,7.272269544314381
2023-03-26T05:47:41.951Z,7.31499660326087
2023-03-26T05:54:07.825Z,7.340116142349499
2023-03-26T06:00:32.251Z,7.410785299958194
2023-03-26T06:08:29.484Z,7.470611021112041
2023-03-26T06:14:52.993Z,7.471400109740802
2023-03-26T06:27:40.382Z,7.615565557065217
2023-03-26T06:40:16.032Z,7.86011575041806
2023-03-26T06:46:41.061Z,7.944787311872909
2023-03-26T06:57:03.438Z,7.889788879598663
2023-03-26T07:04:14.384Z,8.011349028010034
2023-03-26T07:10:37.070Z,8.02297502090301
2023-03-26T07:32:27.564Z,7.774663592182275
2023-03-26T07:38:50.695Z,7.936518211747491
2023-03-26T07:45:38.015Z,7.78508831521739
2023-03-26T07:51:59.294Z,7.7859682012959865
2023-03-26T07:58:20.669Z,7.807048886914716
2023-03-26T08:04:41.980Z,7.807837322324414
2023-03-26T08:12:28.943Z,7.954088498118729
2023-03-26T08:23:50.681Z,8.275519962374581
2023-03-26T08:32:07.718Z,8.241134510869566
2023-03-26T08:38:29.348Z,8.510717365175585
2023-03-26T08:44:50.268Z,8.601333873327759
2023-03-26T08:53:56.421Z,8.703484923704014
2023-03-26T09:00:28.696Z,8.767130669941471
2023-03-26T09:06:52.192Z,8.913444554765885
2023-03-26T09:16:24.355Z,9.026084996864547
2023-03-26T09:22:46.221Z,8.935657269021739
2023-03-26T09:29:11.923Z,9.103865097198996
2023-03-26T09:40:20.131Z,9.118823160535117
2023-03-26T09:46:46.192Z,9.030639893394648
2023-03-26T09:53:07.779Z,8.921438649665552
2023-03-26T09:59:28.639Z,9.210724550585283
2023-03-26T10:05:50.060Z,9.165824231814382
2023-03-26T10:12:10.981Z,9.39632629598662
2023-03-26T10:18:32.016Z,9.302968227424747
2023-03-26T10:24:53.145Z,9.495154420986621
2023-03-26T10:31:15.016Z,9.455980873745819
2023-03-26T10:37:36.337Z,9.785782033862874
2023-03-26T10:44:07.273Z,9.778593358068564
2023-03-26T10:54:24.929Z,9.710719324832777
2023-03-26T11:01:16.180Z,10.045328177257526
2023-03-26T11:07:37.982Z,10.093428616220734
2023-03-26T11:13:59.495Z,10.400099942516722
2023-03-26T11:20:21.231Z,10.278230821488295
2023-03-26T11:26:43.282Z,10.504764579849498
2023-03-26T11:34:05.349Z,10.306859453386288
2023-03-26T11:41:59.875Z,10.40952981291806
2023-03-26T11:48:21.480Z,10.63568143812709
2023-03-26T11:54:43.185Z,10.570710310409698
2023-03-26T12:01:06.182Z,10.598600151546822
2023-03-26T12:07:27.526Z,10.640600830894648
2023-03-26T12:13:49.030Z,11.388215928093645
2023-03-26T12:20:10.331Z,11.365290551839465
2023-03-26T12:31:34.880Z,10.909985759824414
2023-03-26T12:37:56.033Z,10.650513430183947
2023-03-26T12:44:47.303Z,10.746873693561872
2023-03-26T12:51:18.634Z,10.721469350961538
2023-03-26T13:04:19.166Z,10.510015807901338
2023-03-26T13:10:40.746Z,10.200867474916388
2023-03-26T13:17:02.195Z,9.892759066680602
2023-03-26T13:25:27.749Z,10.183014997909698
2023-03-26T13:31:49.372Z,10.494499242265885
2023-03-26T13:38:10.778Z,10.788995218436455
2023-03-26T13:44:32.351Z,11.049376175794315
2023-03-26T13:55:28.227Z,10.603363424958193
2023-03-26T14:02:53.262Z,10.213750914506688
2023-03-26T14:09:15.018Z,10.272599419941473
2023-03-26T14:18:00.723Z,10.687158366429767
2023-03-26T14:24:22.086Z,10.930562813545151
2023-03-26T14:30:44.044Z,10.023696174749164
2023-03-26T14:37:05.617Z,9.89316014318562
2023-03-26T14:43:27.299Z,10.214772549122074
2023-03-26T14:49:48.489Z,10.78191693666388
2023-03-26T14:56:10.020Z,10.615036449623746
2023-03-26T15:02:31.930Z,10.420233460493312
2023-03-26T15:08:53.512Z,9.857356553093645
2023-03-26T15:15:15.147Z,9.5376254180602
2023-03-26T15:27:40.389Z,9.756175533026756
2023-03-26T15:34:02.535Z,9.516636183110366
2023-03-26T15:40:23.880Z,9.342130669941472
2023-03-26T16:03:27.116Z,8.923236308528427
2023-03-26T16:09:48.032Z,8.703999007107024
2023-03-26T16:16:09.041Z,8.447176133988293
2023-03-26T16:22:30.249Z,8.2301480194398
2023-03-26T16:28:51.111Z,8.125206417224081
2023-03-26T16:35:12.456Z,7.9713419732441455
2023-03-26T16:46:33.437Z,7.8366625731605355
2023-03-26T16:52:54.481Z,7.685987144648831
2023-03-26T16:59:15.908Z,7.6567875992892995
2023-03-26T17:05:37.574Z,7.467022235576923
2023-03-26T17:12:00.556Z,7.337264841137124
2023-03-26T17:18:25.217Z,7.161950642767558
2023-03-26T17:30:33.885Z,6.811039402173914
2023-03-26T17:36:55.614Z,6.776083037207359
2023-03-26T17:44:21.632Z,6.54024743938127
2023-03-26T17:50:40.986Z,6.381863372700669
2023-03-26T17:57:03.050Z,6.316317412207357
2023-03-26T18:03:23.887Z,6.360111831103679
2023-03-26T18:09:42.962Z,6.24188179347826
2023-03-26T18:22:16.842Z,5.983504912207358
2023-03-26T18:28:40.063Z,5.848988163670568
2023-03-26T18:35:00.781Z,5.748899325877926
2023-03-26T18:41:21.295Z,5.711987223035117
2023-03-26T18:47:41.709Z,5.625415447324414
2023-03-26T18:54:02.373Z,5.501682692307693
2023-03-26T19:05:30.386Z,5.404475203804347
2023-03-26T19:11:50.714Z,5.339833951714047
2023-03-26T19:18:11.772Z,5.2988607859531776
2023-03-26T19:24:32.016Z,5.2659712061036785
2023-03-26T19:30:54.344Z,5.229371995192308
2023-03-26T19:37:14.297Z,5.158873327759197
2023-03-26T19:43:34.291Z,5.18280139527592
2023-03-26T19:49:53.700Z,5.125030048076923
2023-03-26T19:59:17.573Z,5.048262437290969
2023-03-26T20:07:48.430Z,4.985964935200668
2023-03-26T20:14:07.014Z,4.949181516513378
2023-03-26T20:20:27.013Z,4.9202412991220745
2023-03-26T20:28:47.470Z,4.8854436663879595
2023-03-26T20:35:08.241Z,4.845656746446489
2023-03-26T20:41:29.238Z,4.806753631897994
2023-03-26T20:49:27.010Z,4.736659307065218
2023-03-26T21:05:08.257Z,4.722561533235786
2023-03-26T21:14:42.498Z,4.6037697272157185
2023-03-26T21:21:14.099Z,4.590391800794314
2023-03-26T21:27:41.291Z,4.51371237458194
2023-03-26T21:34:00.010Z,4.5124888952759195
2023-03-26T21:42:49.661Z,4.502254258988295
2023-03-26T21:58:39.389Z,4.385025606187291
2023-03-26T22:04:58.297Z,4.327217025501672
2023-03-26T22:11:17.217Z,4.353891225961538
2023-03-26T22:21:17.244Z,4.256856187290969
2023-03-26T22:27:44.138Z,4.240589072951505
2023-03-26T22:34:04.259Z,4.159322089255853
2023-03-26T22:40:22.855Z,4.168510921822742
2023-03-26T22:50:15.375Z,4.065926133988294
2023-03-26T22:56:35.729Z,4.0741331783026755
2023-03-26T23:07:15.444Z,3.9842874686454857
2023-03-26T23:13:35.646Z,4.001580136914715
2023-03-26T23:19:54.360Z,3.9649613294314383
2023-03-26T23:26:13.034Z,3.8625855716973243
2023-03-26T23:33:16.762Z,3.8902624634197323
2023-03-26T23:43:00.688Z,3.8511130852842808
2023-03-26T23:54:41.174Z,3.9134341032608697
